Time;durP1;ratioP1;P1;durP2;ratioP2;P2;SDS_P1;SDS_P2;PMS_P1;PMS_P2;Temp;Humidity;BMP_temperature;BMP_pressure;BME280_temperature;BME280_humidity;BME280_pressure;Samples;Min_cycle;Max_cycle;Signal;HPM_P1;HPM_P2
2023/05/23 00:02:15;;;;;;;36.40;16.35;;;13.80;99.90;;;;;;5048712;28;20076;-75
2023/05/23 00:04:41;;;;;;;35.58;16.45;;;13.80;99.90;;;;;;5034123;28;20103;-75
2023/05/23 00:07:07;;;;;;;33.35;15.45;;;13.80;99.90;;;;;;5041383;28;20050;-75
2023/05/23 00:09:33;;;;;;;33.35;14.65;;;13.80;99.90;;;;;;5070715;28;20036;-75
2023/05/23 00:11:59;;;;;;;33.30;15.45;;;13.80;99.90;;;;;;5044561;28;20124;-75
2023/05/23 00:14:25;;;;;;;27.55;14.15;;;13.80;99.90;;;;;;5036479;28;20055;-75
2023/05/23 00:16:51;;;;;;;34.13;15.07;;;13.90;99.90;;;;;;5043695;28;20055;-75
2023/05/23 00:19:17;;;;;;;32.47;12.90;;;13.90;99.90;;;;;;5049615;28;20048;-75
2023/05/23 00:21:49;;;;;;;33.50;13.50;;;13.90;99.90;;;;;;5034768;28;20087;-75
2023/05/23 00:24:19;;;;;;;27.90;12.80;;;13.90;99.90;;;;;;5052169;28;20123;-75
2023/05/23 00:26:45;;;;;;;27.25;12.80;;;13.80;99.90;;;;;;5051998;28;20498;-75
2023/05/23 00:29:15;;;;;;;25.00;12.02;;;13.90;99.90;;;;;;5049736;28;20036;-75
2023/05/23 00:31:47;;;;;;;29.98;13.10;;;13.90;99.90;;;;;;5064665;28;20048;-75
2023/05/23 00:34:14;;;;;;;29.35;12.82;;;13.90;99.90;;;;;;5068853;28;20498;-75
2023/05/23 00:36:42;;;;;;;29.17;13.50;;;13.90;99.90;;;;;;5061614;28;20440;-75
2023/05/23 00:39:08;;;;;;;32.60;12.80;;;13.90;99.90;;;;;;5068497;28;20458;-75
2023/05/23 00:41:37;;;;;;;31.40;13.45;;;13.90;99.90;;;;;;5048709;28;20048;-75
2023/05/23 00:44:04;;;;;;;27.17;12.65;;;13.90;99.90;;;;;;5034177;28;20127;-74
2023/05/23 00:46:30;;;;;;;25.70;12.68;;;13.90;99.90;;;;;;5040038;28;20102;-75
2023/05/23 00:48:56;;;;;;;28.27;12.27;;;13.80;99.90;;;;;;5060640;28;20513;-76
2023/05/23 00:51:23;;;;;;;27.85;13.77;;;13.80;99.90;;;;;;5043938;28;20040;-76
2023/05/23 00:53:49;;;;;;;27.63;13.75;;;13.80;99.90;;;;;;5043507;28;20048;-75
2023/05/23 00:56:14;;;;;;;23.75;13.38;;;13.90;99.90;;;;;;5064037;28;20044;-75
2023/05/23 00:58:40;;;;;;;26.33;13.73;;;13.80;99.90;;;;;;5047374;28;20090;-75
2023/05/23 01:01:07;;;;;;;27.00;15.02;;;13.80;99.90;;;;;;5050155;28;20390;-75
2023/05/23 01:03:32;;;;;;;26.42;15.48;;;13.80;99.90;;;;;;5035287;28;20033;-75
2023/05/23 01:05:58;;;;;;;25.25;14.27;;;13.80;99.90;;;;;;5047897;28;20451;-75
2023/05/23 01:08:24;;;;;;;31.05;14.38;;;13.80;99.90;;;;;;5018879;28;20090;-76
2023/05/23 01:10:51;;;;;;;21.98;13.20;;;13.80;99.90;;;;;;5047388;28;20094;-76
2023/05/23 01:13:29;;;;;;;21.92;12.75;;;13.80;99.90;;;;;;5055041;28;20045;-75
2023/05/23 01:16:05;;;;;;;22.08;12.93;;;13.70;99.90;;;;;;5060240;28;20052;-75
2023/05/23 01:18:45;;;;;;;20.50;11.07;;;13.70;99.90;;;;;;5051592;28;20044;-75
2023/05/23 01:21:16;;;;;;;19.80;10.02;;;13.70;99.90;;;;;;5068854;28;20036;-76
2023/05/23 01:23:58;;;;;;;20.65;9.88;;;13.70;99.90;;;;;;5050027;28;20140;-75
2023/05/23 01:26:48;;;;;;;21.75;9.77;;;13.70;99.90;;;;;;5058245;28;20036;-75
2023/05/23 01:29:26;;;;;;;19.98;8.65;;;13.70;99.90;;;;;;5068356;28;20040;-75
2023/05/23 01:31:54;;;;;;;19.75;8.32;;;13.60;99.90;;;;;;5051415;28;20036;-75
2023/05/23 01:34:20;;;;;;;17.35;7.15;;;13.60;99.90;;;;;;5049741;28;20051;-75
2023/05/23 01:36:52;;;;;;;18.48;6.93;;;13.50;99.90;;;;;;5065921;28;20044;-75
2023/05/23 01:39:18;;;;;;;17.50;6.22;;;13.50;99.90;;;;;;5047304;28;20055;-75
2023/05/23 01:41:44;;;;;;;20.35;6.20;;;13.50;99.90;;;;;;5042768;28;20040;-75
2023/05/23 01:44:10;;;;;;;16.08;6.60;;;13.40;99.90;;;;;;5055457;28;20067;-75
2023/05/23 01:46:38;;;;;;;16.23;6.55;;;13.40;99.90;;;;;;5044705;28;20055;-75
2023/05/23 01:49:05;;;;;;;17.58;7.15;;;13.30;99.90;;;;;;5051260;28;20119;-75
2023/05/23 01:51:33;;;;;;;16.42;6.95;;;13.30;99.90;;;;;;5059276;28;20044;-75
2023/05/23 01:53:59;;;;;;;22.70;7.15;;;13.20;99.90;;;;;;5048655;28;20033;-75
2023/05/23 01:56:27;;;;;;;19.83;7.28;;;13.10;99.90;;;;;;5047441;28;20047;-75
2023/05/23 01:58:53;;;;;;;22.15;7.55;;;13.10;99.90;;;;;;5057533;28;20040;-76
2023/05/23 02:01:19;;;;;;;24.45;8.02;;;13.00;99.90;;;;;;5043240;28;20040;-75
2023/05/23 02:03:45;;;;;;;22.20;8.05;;;13.10;99.90;;;;;;5016432;28;20037;-75
2023/05/23 02:06:11;;;;;;;23.45;8.73;;;12.90;99.90;;;;;;5056360;28;20093;-75
2023/05/23 02:08:37;;;;;;;25.70;9.13;;;12.90;99.90;;;;;;5043887;28;20045;-75
2023/05/23 02:11:02;;;;;;;27.10;8.98;;;12.90;99.90;;;;;;5037460;28;20037;-76
2023/05/23 02:13:28;;;;;;;27.15;9.48;;;12.80;99.90;;;;;;5055422;28;20557;-75
2023/05/23 02:15:54;;;;;;;25.27;9.15;;;12.80;99.90;;;;;;5028695;28;20157;-76
2023/05/23 02:18:20;;;;;;;21.67;8.70;;;12.80;99.90;;;;;;5060114;28;20064;-75
2023/05/23 02:20:45;;;;;;;24.50;9.20;;;12.70;99.90;;;;;;5054114;28;20045;-75
2023/05/23 02:23:11;;;;;;;21.52;8.60;;;12.70;99.90;;;;;;5043779;28;20048;-75
2023/05/23 02:25:37;;;;;;;25.13;9.35;;;12.70;99.90;;;;;;5041843;28;20048;-75
2023/05/23 02:28:03;;;;;;;24.42;9.27;;;12.70;99.90;;;;;;5043540;28;20032;-76
2023/05/23 02:30:28;;;;;;;23.38;7.88;;;12.70;99.90;;;;;;5062060;28;20486;-75
2023/05/23 02:32:54;;;;;;;24.42;8.20;;;12.60;99.90;;;;;;5059947;28;20146;-75
2023/05/23 02:35:21;;;;;;;21.85;7.80;;;12.60;99.90;;;;;;5040091;28;20047;-75
2023/05/23 02:37:47;;;;;;;25.25;7.50;;;12.60;99.90;;;;;;5058914;28;20563;-75
2023/05/23 02:40:12;;;;;;;18.90;6.53;;;12.50;99.90;;;;;;5042890;28;20036;-76
2023/05/23 02:42:38;;;;;;;19.17;6.82;;;12.50;99.90;;;;;;5061289;28;20044;-76
2023/05/23 02:45:04;;;;;;;16.17;5.80;;;12.50;99.90;;;;;;5027366;28;20051;-76
2023/05/23 02:47:30;;;;;;;18.02;5.90;;;12.40;99.90;;;;;;5040829;28;20047;-76
2023/05/23 02:49:55;;;;;;;17.63;6.40;;;12.30;99.90;;;;;;5027401;28;20049;-75
2023/05/23 02:52:21;;;;;;;16.65;5.68;;;12.30;99.90;;;;;;5041216;28;20402;-76
2023/05/23 02:54:47;;;;;;;16.98;6.30;;;12.30;99.90;;;;;;5041597;28;20047;-76
2023/05/23 02:57:13;;;;;;;19.35;6.32;;;12.20;99.90;;;;;;5044052;28;20033;-76
2023/05/23 02:59:38;;;;;;;16.35;6.22;;;12.10;99.90;;;;;;5059411;28;20098;-76
2023/05/23 03:02:05;;;;;;;19.42;6.70;;;12.10;99.90;;;;;;5023868;28;20470;-77
2023/05/23 03:04:30;;;;;;;22.67;7.07;;;12.10;99.90;;;;;;5059070;28;20041;-76
2023/05/23 03:06:58;;;;;;;21.08;7.25;;;12.10;99.90;;;;;;5043709;28;20189;-76
2023/05/23 03:09:24;;;;;;;21.67;7.43;;;12.10;99.90;;;;;;5008720;28;20403;-76
2023/05/23 03:11:50;;;;;;;21.05;6.95;;;12.10;99.90;;;;;;5040984;28;20035;-76
2023/05/23 03:14:16;;;;;;;22.42;7.93;;;12.10;99.90;;;;;;5044681;28;20522;-76
2023/05/23 03:16:42;;;;;;;20.88;7.22;;;12.10;99.90;;;;;;5043442;28;20067;-75
2023/05/23 03:19:07;;;;;;;22.33;7.85;;;12.10;99.90;;;;;;5043768;28;20036;-76
2023/05/23 03:21:34;;;;;;;27.63;8.98;;;12.10;99.90;;;;;;5044408;28;20033;-76
2023/05/23 03:24:00;;;;;;;23.38;8.50;;;12.10;99.90;;;;;;5044184;28;20038;-77
2023/05/23 03:26:26;;;;;;;21.65;7.78;;;12.10;99.90;;;;;;5061522;28;20348;-76
2023/05/23 03:28:51;;;;;;;22.30;8.02;;;12.10;99.90;;;;;;5040482;28;20942;-76
2023/05/23 03:31:17;;;;;;;23.45;7.80;;;12.10;99.90;;;;;;5060036;28;20131;-76
2023/05/23 03:33:43;;;;;;;25.10;7.75;;;12.10;99.90;;;;;;5067531;28;20043;-76
2023/05/23 03:36:09;;;;;;;22.05;7.30;;;12.10;99.90;;;;;;5066128;28;20142;-76
2023/05/23 03:38:34;;;;;;;24.77;8.60;;;12.10;99.90;;;;;;5063017;28;20051;-76
2023/05/23 03:41:00;;;;;;;28.20;8.00;;;12.10;99.90;;;;;;5062488;28;20025;-76
2023/05/23 03:43:26;;;;;;;28.02;7.40;;;12.10;99.90;;;;;;5045503;28;20494;-76
2023/05/23 03:45:52;;;;;;;21.98;7.55;;;12.10;99.90;;;;;;5049236;28;20041;-76
2023/05/23 03:48:17;;;;;;;18.00;6.10;;;12.10;99.90;;;;;;5066030;28;20044;-76
2023/05/23 03:50:43;;;;;;;22.50;6.70;;;12.10;99.90;;;;;;5058945;28;20388;-76
2023/05/23 03:53:09;;;;;;;20.50;6.32;;;12.10;99.90;;;;;;5043684;28;20048;-76
2023/05/23 03:55:35;;;;;;;18.08;5.68;;;11.90;99.90;;;;;;5031236;28;20040;-76
2023/05/23 03:58:00;;;;;;;18.02;5.75;;;12.00;99.90;;;;;;5035868;28;20048;-77
2023/05/23 04:00:26;;;;;;;21.98;6.15;;;12.00;99.90;;;;;;5057221;28;20037;-76
2023/05/23 04:02:52;;;;;;;30.73;7.18;;;12.00;99.90;;;;;;5062475;28;20093;-76
2023/05/23 04:05:18;;;;;;;20.63;6.63;;;12.00;99.90;;;;;;5062662;28;20490;-76
2023/05/23 04:07:44;;;;;;;17.38;5.60;;;12.00;99.90;;;;;;5060585;28;20029;-76
2023/05/23 04:10:11;;;;;;;23.45;6.65;;;11.90;99.90;;;;;;5037343;28;20040;-77
2023/05/23 04:12:40;;;;;;;24.55;6.40;;;11.90;99.90;;;;;;5054105;28;20461;-76
2023/05/23 04:15:06;;;;;;;18.40;5.47;;;11.90;99.90;;;;;;5031140;28;20037;-76
2023/05/23 04:17:32;;;;;;;19.83;5.47;;;12.00;99.90;;;;;;5033733;28;20085;-76
2023/05/23 04:19:58;;;;;;;18.67;5.60;;;12.00;99.90;;;;;;5028015;28;20114;-76
2023/05/23 04:22:24;;;;;;;22.92;5.15;;;12.00;99.90;;;;;;5047266;28;20075;-75
2023/05/23 04:24:50;;;;;;;17.13;4.97;;;12.00;99.90;;;;;;5060146;28;20090;-76
2023/05/23 04:27:15;;;;;;;17.45;5.15;;;11.90;99.90;;;;;;5061081;28;20102;-76
2023/05/23 04:29:41;;;;;;;18.20;5.82;;;12.00;99.90;;;;;;5063440;28;20051;-76
2023/05/23 04:32:07;;;;;;;20.35;4.70;;;11.90;99.90;;;;;;5046543;28;20043;-76
2023/05/23 04:34:33;;;;;;;17.45;4.90;;;12.00;99.90;;;;;;5062827;28;20449;-76
2023/05/23 04:37:02;;;;;;;12.73;3.72;;;12.00;99.90;;;;;;5070218;28;20490;-75
2023/05/23 04:39:30;;;;;;;16.75;5.00;;;12.00;99.90;;;;;;5068050;28;20290;-76
2023/05/23 04:41:56;;;;;;;14.18;4.53;;;12.00;99.90;;;;;;5032003;28;20520;-75
2023/05/23 04:44:29;;;;;;;17.95;4.32;;;12.00;99.90;;;;;;5049656;28;20036;-76
2023/05/23 04:46:55;;;;;;;17.15;4.40;;;12.00;99.90;;;;;;5049600;28;20048;-76
2023/05/23 04:49:21;;;;;;;19.33;4.68;;;12.00;99.90;;;;;;5066157;28;20053;-76
2023/05/23 04:51:47;;;;;;;19.25;4.78;;;12.00;99.90;;;;;;5030617;28;20045;-75
2023/05/23 04:54:13;;;;;;;15.45;4.43;;;11.90;99.90;;;;;;5053519;28;20040;-75
2023/05/23 04:56:38;;;;;;;19.33;4.43;;;11.90;99.90;;;;;;5050812;28;20052;-75
2023/05/23 04:59:04;;;;;;;20.10;5.43;;;11.90;99.90;;;;;;5066864;28;20067;-76
2023/05/23 05:01:30;;;;;;;17.90;5.93;;;11.90;99.90;;;;;;5044719;28;20072;-75
2023/05/23 05:03:56;;;;;;;15.68;5.28;;;11.80;99.90;;;;;;5065489;28;20203;-76
2023/05/23 05:06:22;;;;;;;20.52;6.63;;;11.80;99.90;;;;;;5056473;28;20048;-75
2023/05/23 05:08:48;;;;;;;19.17;6.50;;;11.80;99.90;;;;;;5055846;28;20041;-76
2023/05/23 05:11:13;;;;;;;23.40;8.10;;;11.70;99.90;;;;;;5061334;28;20036;-75
2023/05/23 05:13:39;;;;;;;23.08;8.85;;;11.60;99.90;;;;;;5066762;28;20036;-75
2023/05/23 05:16:05;;;;;;;22.60;8.15;;;11.60;99.90;;;;;;5034793;28;20176;-75
2023/05/23 05:18:31;;;;;;;23.27;8.65;;;11.50;99.90;;;;;;5060579;28;20498;-75
2023/05/23 05:20:57;;;;;;;21.35;7.75;;;11.50;99.90;;;;;;5044358;28;20124;-75
2023/05/23 05:23:27;;;;;;;23.77;8.23;;;11.50;99.90;;;;;;5058234;28;20040;-75
2023/05/23 05:25:55;;;;;;;21.33;7.25;;;11.50;99.90;;;;;;5037608;28;20032;-75
2023/05/23 05:28:20;;;;;;;19.27;6.75;;;11.50;99.90;;;;;;5063616;28;20481;-75
2023/05/23 05:30:47;;;;;;;18.80;7.30;;;11.40;99.90;;;;;;5039908;28;20064;-75
2023/05/23 05:33:13;;;;;;;20.10;6.65;;;11.40;99.90;;;;;;5042744;28;20044;-76
2023/05/23 05:35:38;;;;;;;18.05;7.30;;;11.40;99.90;;;;;;5048973;28;20391;-75
2023/05/23 05:38:04;;;;;;;19.67;7.05;;;11.40;99.90;;;;;;5061612;28;20041;-76
2023/05/23 05:40:33;;;;;;;18.67;6.57;;;11.40;99.90;;;;;;5033321;28;20029;-76
2023/05/23 05:42:59;;;;;;;20.63;7.50;;;10.80;99.90;;;;;;5033383;28;20041;-76
2023/05/23 05:45:25;;;;;;;17.95;7.10;;;11.40;99.90;;;;;;5016357;28;20048;-76
2023/05/23 05:47:51;;;;;;;16.17;5.78;;;11.40;99.90;;;;;;5053063;28;20449;-76
2023/05/23 05:50:19;;;;;;;20.95;6.20;;;11.40;99.90;;;;;;5049405;28;20040;-76
2023/05/23 05:52:44;;;;;;;24.25;6.57;;;11.40;99.90;;;;;;5030576;28;20119;-75
2023/05/23 05:55:10;;;;;;;21.30;6.75;;;11.40;99.90;;;;;;5049567;28;20128;-75
2023/05/23 05:57:37;;;;;;;19.70;6.53;;;11.50;99.90;;;;;;5033724;28;20075;-75
2023/05/23 06:00:13;;;;;;;19.65;6.30;;;11.50;99.90;;;;;;5017345;28;20136;-76
2023/05/23 06:02:40;;;;;;;19.10;5.70;;;11.40;99.90;;;;;;5043196;28;20048;-75
2023/05/23 06:05:06;;;;;;;16.60;5.72;;;11.50;99.90;;;;;;5036872;28;20032;-75
2023/05/23 06:07:35;;;;;;;17.88;4.35;;;11.40;99.90;;;;;;5039181;28;20111;-76
2023/05/23 06:10:02;;;;;;;16.27;4.65;;;11.40;99.90;;;;;;5058399;28;20037;-75
2023/05/23 06:12:28;;;;;;;17.50;4.60;;;11.40;99.90;;;;;;5041940;28;20535;-74
2023/05/23 06:14:54;;;;;;;12.73;3.88;;;11.40;99.90;;;;;;5024474;28;20124;-75
2023/05/23 06:17:20;;;;;;;14.45;4.15;;;11.30;99.90;;;;;;5045651;28;20052;-75
2023/05/23 06:19:45;;;;;;;15.90;4.65;;;11.30;99.90;;;;;;5059571;28;20132;-76
2023/05/23 06:22:11;;;;;;;18.38;4.40;;;11.20;99.90;;;;;;5062605;28;20033;-76
2023/05/23 06:24:36;;;;;;;18.40;4.60;;;11.20;99.90;;;;;;5052394;28;20498;-75
2023/05/23 06:27:02;;;;;;;17.88;4.80;;;11.20;99.90;;;;;;5028677;28;20051;-75
2023/05/23 06:29:30;;;;;;;14.13;4.72;;;11.20;99.90;;;;;;5054822;28;20676;-75
2023/05/23 06:31:56;;;;;;;18.38;4.88;;;11.20;99.90;;;;;;5057502;28;20040;-75
2023/05/23 06:34:21;;;;;;;16.10;4.72;;;11.30;99.90;;;;;;5036611;28;20044;-75
2023/05/23 06:36:47;;;;;;;15.95;4.65;;;11.40;99.90;;;;;;5060358;28;20044;-76
2023/05/23 06:39:13;;;;;;;17.67;4.28;;;11.50;99.90;;;;;;5029504;28;20033;-75
2023/05/23 06:41:39;;;;;;;20.40;4.07;;;11.50;99.90;;;;;;5057004;28;20048;-76
2023/05/23 06:44:05;;;;;;;20.30;4.35;;;11.60;99.90;;;;;;5043988;28;20101;-75
2023/05/23 06:46:31;;;;;;;20.20;5.15;;;11.70;99.90;;;;;;5042661;28;20453;-75
2023/05/23 06:48:56;;;;;;;16.20;4.55;;;11.80;99.90;;;;;;5060659;28;20076;-76
2023/05/23 06:51:22;;;;;;;19.35;4.95;;;11.80;99.90;;;;;;5060508;28;20040;-75
2023/05/23 06:53:48;;;;;;;12.40;4.10;;;11.80;99.90;;;;;;5058886;28;20040;-75
2023/05/23 06:56:13;;;;;;;17.33;4.45;;;11.80;99.90;;;;;;5035305;28;20409;-75
2023/05/23 06:58:40;;;;;;;20.95;5.10;;;11.80;99.90;;;;;;5058463;28;20167;-75
2023/05/23 07:01:05;;;;;;;16.55;4.35;;;11.90;99.90;;;;;;5022032;28;20076;-74
2023/05/23 07:03:32;;;;;;;18.50;4.05;;;11.90;99.90;;;;;;5028892;28;20144;-74
2023/05/23 07:05:58;;;;;;;19.63;4.53;;;11.90;99.90;;;;;;5040396;28;20106;-75
2023/05/23 07:08:24;;;;;;;19.38;4.93;;;11.90;99.90;;;;;;5042841;28;20029;-74
2023/05/23 07:10:49;;;;;;;17.67;5.45;;;11.90;99.90;;;;;;5060853;28;20521;-75
2023/05/23 07:13:15;;;;;;;19.45;4.93;;;11.90;99.90;;;;;;5056319;28;20052;-75
2023/05/23 07:15:41;;;;;;;21.85;4.40;;;11.90;99.90;;;;;;5045729;28;20542;-75
2023/05/23 07:18:08;;;;;;;18.95;4.22;;;11.80;99.90;;;;;;5056406;28;20052;-75
2023/05/23 07:20:34;;;;;;;19.45;4.43;;;11.80;99.90;;;;;;5062629;28;20410;-75
2023/05/23 07:22:59;;;;;;;19.23;3.83;;;11.80;99.90;;;;;;5043271;28;20032;-75
2023/05/23 07:25:26;;;;;;;22.60;4.40;;;11.80;99.90;;;;;;5040669;28;20112;-74
2023/05/23 07:27:53;;;;;;;16.70;4.28;;;11.80;99.90;;;;;;5059786;28;20048;-75
2023/05/23 07:30:21;;;;;;;17.58;4.47;;;11.80;99.90;;;;;;5055510;28;20047;-74
2023/05/23 07:32:47;;;;;;;18.00;4.57;;;11.80;99.90;;;;;;5056415;28;20506;-75
2023/05/23 07:35:16;;;;;;;15.95;4.07;;;11.80;99.90;;;;;;5044506;28;20449;-76
2023/05/23 07:37:42;;;;;;;19.10;4.40;;;11.80;99.90;;;;;;5061624;28;20075;-75
2023/05/23 07:40:09;;;;;;;17.42;4.13;;;11.90;99.90;;;;;;5040946;28;20064;-75
2023/05/23 07:42:36;;;;;;;19.38;4.50;;;11.90;99.90;;;;;;5046300;28;20044;-75
2023/05/23 07:45:01;;;;;;;17.27;4.60;;;12.00;99.90;;;;;;5061041;28;20460;-75
2023/05/23 07:47:27;;;;;;;18.45;4.25;;;12.10;99.90;;;;;;5063579;28;20040;-75
2023/05/23 07:49:53;;;;;;;20.60;4.82;;;12.20;99.90;;;;;;5039389;28;20506;-75
2023/05/23 07:52:19;;;;;;;15.48;3.50;;;12.30;99.90;;;;;;5041540;28;20083;-74
2023/05/23 07:54:45;;;;;;;14.88;3.95;;;12.30;99.90;;;;;;5057806;28;20037;-75
2023/05/23 07:57:11;;;;;;;14.27;3.45;;;12.30;99.90;;;;;;5057278;28;20555;-75
2023/05/23 07:59:37;;;;;;;20.67;4.57;;;12.30;99.90;;;;;;5039301;28;20059;-76
2023/05/23 08:02:03;;;;;;;16.58;4.70;;;12.40;99.90;;;;;;5038423;28;20696;-75
2023/05/23 08:04:31;;;;;;;16.67;4.32;;;12.50;99.90;;;;;;5057635;28;20037;-76
2023/05/23 08:06:56;;;;;;;14.20;3.53;;;12.50;99.90;;;;;;5040283;28;20379;-75
2023/05/23 08:09:23;;;;;;;15.27;3.95;;;12.70;99.90;;;;;;5062254;28;20052;-75
2023/05/23 08:11:49;;;;;;;20.02;4.53;;;12.80;99.90;;;;;;5062174;28;20396;-74
2023/05/23 08:14:14;;;;;;;26.05;4.70;;;12.90;99.90;;;;;;5048169;28;20124;-75
2023/05/23 08:16:40;;;;;;;17.95;4.43;;;12.80;99.90;;;;;;5064484;28;20046;-76
2023/05/23 08:19:06;;;;;;;19.85;3.90;;;12.80;99.90;;;;;;5043204;28;20568;-75
2023/05/23 08:21:32;;;;;;;16.17;4.30;;;13.20;99.90;;;;;;5040581;28;20071;-75
2023/05/23 08:23:58;;;;;;;18.08;4.20;;;12.80;99.90;;;;;;5044940;28;20502;-75
2023/05/23 08:26:25;;;;;;;17.90;4.32;;;12.90;99.90;;;;;;5030801;28;20037;-75
2023/05/23 08:28:51;;;;;;;19.55;4.38;;;13.00;99.90;;;;;;5045185;28;20520;-76
2023/05/23 08:31:17;;;;;;;15.57;4.15;;;13.30;99.90;;;;;;5064074;28;20040;-76
2023/05/23 08:33:43;;;;;;;17.95;4.60;;;13.40;99.90;;;;;;5041681;28;20045;-75
2023/05/23 08:36:09;;;;;;;16.50;4.43;;;13.30;99.90;;;;;;5062111;28;20055;-76
2023/05/23 08:38:35;;;;;;;18.60;4.28;;;13.30;99.90;;;;;;5044491;28;20032;-75
2023/05/23 08:41:01;;;;;;;19.45;4.00;;;13.20;99.90;;;;;;5062082;28;20041;-75
2023/05/23 08:43:27;;;;;;;21.45;4.50;;;13.20;99.90;;;;;;5046786;28;20475;-75
2023/05/23 08:45:54;;;;;;;15.75;4.40;;;13.30;99.90;;;;;;5044857;28;20064;-75
2023/05/23 08:48:20;;;;;;;16.90;3.92;;;13.20;99.90;;;;;;5062612;28;20076;-76
2023/05/23 08:50:47;;;;;;;21.35;4.50;;;13.20;99.90;;;;;;5057978;28;20673;-75
2023/05/23 08:53:19;;;;;;;19.20;4.22;;;13.10;99.90;;;;;;5046550;28;20044;-75
2023/05/23 08:55:47;;;;;;;17.05;4.50;;;13.10;99.90;;;;;;5041766;28;20116;-74
2023/05/23 08:58:14;;;;;;;16.02;4.28;;;13.20;99.90;;;;;;5041871;28;20036;-75
2023/05/23 09:00:41;;;;;;;16.33;4.45;;;13.40;99.90;;;;;;5044160;28;20100;-75
2023/05/23 09:03:08;;;;;;;16.48;3.70;;;13.50;99.90;;;;;;5063219;28;20032;-75
2023/05/23 09:05:34;;;;;;;15.65;4.07;;;13.30;99.90;;;;;;5062828;28;20383;-74
2023/05/23 09:07:59;;;;;;;16.75;4.13;;;13.30;99.90;;;;;;5049933;28;20119;-76
2023/05/23 09:10:28;;;;;;;17.02;4.18;;;13.30;99.90;;;;;;5037807;28;20091;-74
2023/05/23 09:12:54;;;;;;;18.55;3.90;;;13.30;99.90;;;;;;5061007;28;20032;-74
2023/05/23 09:15:21;;;;;;;16.83;4.18;;;13.40;99.90;;;;;;5042859;28;20476;-75
2023/05/23 09:17:47;;;;;;;17.63;3.97;;;13.40;99.90;;;;;;5059251;28;20053;-75
2023/05/23 09:20:15;;;;;;;15.77;3.50;;;13.30;99.90;;;;;;5060854;28;20141;-75
2023/05/23 09:22:46;;;;;;;16.35;3.97;;;13.20;99.90;;;;;;5064125;28;20040;-74
2023/05/23 09:25:12;;;;;;;15.95;3.53;;;13.10;99.90;;;;;;5041763;28;20040;-74
2023/05/23 09:27:37;;;;;;;20.27;3.78;;;13.10;99.90;;;;;;5055801;28;20049;-74
2023/05/23 09:30:07;;;;;;;17.27;4.38;;;13.10;99.90;;;;;;5059274;28;20036;-74
2023/05/23 09:32:33;;;;;;;19.27;4.43;;;13.10;99.90;;;;;;5042496;28;20068;-74
2023/05/23 09:35:02;;;;;;;19.40;4.35;;;13.00;99.90;;;;;;5057723;28;20071;-75
2023/05/23 09:37:40;;;;;;;20.35;4.20;;;13.00;99.90;;;;;;5061911;28;20086;-74
2023/05/23 09:40:11;;;;;;;16.40;3.83;;;13.00;99.90;;;;;;5038629;28;20051;-75
2023/05/23 09:42:47;;;;;;;17.30;3.97;;;13.10;99.90;;;;;;5060043;28;20145;-75
2023/05/23 09:45:15;;;;;;;20.17;3.80;;;13.10;99.90;;;;;;5058866;28;20538;-74
2023/05/23 09:47:50;;;;;;;19.23;4.68;;;13.20;99.90;;;;;;5060489;28;20044;-74
2023/05/23 09:50:17;;;;;;;19.38;3.67;;;13.30;99.90;;;;;;5043818;28;20029;-74
2023/05/23 09:52:42;;;;;;;19.63;4.15;;;13.30;99.90;;;;;;5041647;28;20091;-74
2023/05/23 09:55:09;;;;;;;17.65;4.07;;;13.40;99.90;;;;;;5042751;28;20072;-74
2023/05/23 09:57:36;;;;;;;13.40;3.50;;;13.60;99.90;;;;;;5058389;28;20380;-74
2023/05/23 10:00:09;;;;;;;21.90;4.78;;;13.80;99.90;;;;;;5040703;28;20450;-74
2023/05/23 10:02:56;;;;;;;16.13;4.03;;;13.90;99.90;;;;;;5060311;28;20418;-75
2023/05/23 10:05:32;;;;;;;16.73;3.70;;;14.00;99.90;;;;;;5039495;28;20036;-74
2023/05/23 10:08:00;;;;;;;16.55;3.63;;;14.00;99.90;;;;;;5060796;28;20571;-75
2023/05/23 10:10:32;;;;;;;18.67;3.80;;;14.00;99.90;;;;;;5061329;28;20471;-74
2023/05/23 10:13:05;;;;;;;18.15;4.32;;;13.90;99.90;;;;;;5028850;28;20045;-74
2023/05/23 10:15:38;;;;;;;12.80;3.25;;;13.90;99.90;;;;;;5059649;28;20096;-75
2023/05/23 10:18:16;;;;;;;15.65;3.70;;;13.80;99.90;;;;;;5072226;28;20068;-75
2023/05/23 10:20:46;;;;;;;13.40;3.28;;;13.90;99.90;;;;;;5059926;28;20044;-75
2023/05/23 10:23:12;;;;;;;14.93;3.72;;;14.00;99.90;;;;;;5045550;28;20125;-75
2023/05/23 10:25:40;;;;;;;14.57;3.83;;;14.00;99.90;;;;;;5039565;28;20071;-75
2023/05/23 10:28:06;;;;;;;14.77;3.30;;;14.10;99.90;;;;;;5040342;28;20103;-75
2023/05/23 10:30:33;;;;;;;14.52;3.35;;;13.90;99.90;;;;;;5057883;28;20033;-75
2023/05/23 10:33:00;;;;;;;14.00;3.70;;;14.00;99.90;;;;;;5056991;28;20359;-74
2023/05/23 10:35:49;;;;;;;15.90;3.95;;;14.00;99.90;;;;;;5047333;28;20079;-74
2023/05/23 10:38:36;;;;;;;17.13;3.47;;;14.10;99.90;;;;;;5040277;28;20071;-74
2023/05/23 10:41:09;;;;;;;19.15;3.85;;;14.10;99.90;;;;;;5060486;28;20502;-74
2023/05/23 10:43:54;;;;;;;;;;;14.10;99.90;;;;;;5038960;28;20032;-76
2023/05/23 10:46:22;;;;;;;14.98;3.33;;;14.20;99.90;;;;;;5061545;28;19916;-75
2023/05/23 10:48:56;;;;;;;14.40;3.80;;;14.30;99.90;;;;;;5044049;28;20044;-75
2023/05/23 10:51:21;;;;;;;14.02;3.08;;;14.20;99.90;;;;;;5036973;28;20487;-74
2023/05/23 10:53:53;;;;;;;15.15;3.28;;;14.30;99.90;;;;;;5062323;28;20044;-75
2023/05/23 10:56:22;;;;;;;14.68;3.33;;;14.40;99.90;;;;;;5044071;28;20032;-74
2023/05/23 10:58:53;;;;;;;16.80;4.25;;;14.40;99.90;;;;;;5042363;28;20041;-75
2023/05/23 11:01:19;;;;;;;18.90;4.32;;;14.60;99.90;;;;;;5040666;28;20178;-75
2023/05/23 11:03:45;;;;;;;21.05;3.70;;;14.60;99.90;;;;;;5060656;28;20191;-75
2023/05/23 11:06:38;;;;;;;14.07;3.42;;;14.60;99.90;;;;;;5042687;28;20123;-74
2023/05/23 11:09:18;;;;;;;18.30;3.63;;;14.70;99.90;;;;;;5060440;28;20047;-74
2023/05/23 11:11:52;;;;;;;14.38;3.25;;;14.70;99.90;;;;;;5036525;28;20035;-74
2023/05/23 11:14:38;;;;;;;13.45;2.90;;;14.90;99.90;;;;;;5058312;28;20586;-74
2023/05/23 11:17:18;;;;;;;19.67;3.88;;;14.70;99.90;;;;;;5032190;28;20044;-75
2023/05/23 11:20:08;;;;;;;17.30;4.00;;;14.50;99.90;;;;;;5036721;28;20037;-75
2023/05/23 11:22:34;;;;;;;19.48;4.20;;;14.30;99.90;;;;;;5056449;28;20036;-74
2023/05/23 11:25:05;;;;;;;13.43;3.42;;;14.40;99.90;;;;;;5044236;28;20044;-74
2023/05/23 11:27:36;;;;;;;13.75;3.53;;;14.50;99.90;;;;;;5058772;28;20167;-75
2023/05/23 11:30:16;;;;;;;16.58;3.50;;;14.50;99.90;;;;;;5040192;28;20670;-75
2023/05/23 11:32:53;;;;;;;17.98;3.20;;;14.40;99.90;;;;;;5061440;28;20141;-75
2023/05/23 11:35:20;;;;;;;13.63;3.22;;;14.20;99.90;;;;;;5042447;28;20041;-75
2023/05/23 11:37:46;;;;;;;10.68;2.70;;;14.40;99.90;;;;;;5058278;28;20096;-74
2023/05/23 11:40:43;;;;;;;16.40;3.13;;;14.70;99.90;;;;;;5035907;28;20033;-74
2023/05/23 11:43:12;;;;;;;15.30;3.45;;;14.90;99.90;;;;;;5060999;28;20040;-75
2023/05/23 11:45:38;;;;;;;12.50;3.38;;;14.80;99.90;;;;;;5047115;28;20071;-74
2023/05/23 11:48:15;;;;;;;17.85;3.58;;;14.70;99.90;;;;;;5050558;28;20124;-74
2023/05/23 11:50:52;;;;;;;15.20;3.80;;;14.60;99.90;;;;;;5061973;28;20040;-74
2023/05/23 11:53:21;;;;;;;20.33;3.85;;;14.50;99.90;;;;;;5066158;28;22251;-74
2023/05/23 11:55:52;;;;;;;16.75;3.58;;;14.40;99.90;;;;;;5061098;28;20098;-75
2023/05/23 11:58:28;;;;;;;19.17;3.50;;;14.30;99.90;;;;;;5040603;28;20036;-75
2023/05/23 12:01:02;;;;;;;14.07;3.33;;;14.40;99.90;;;;;;5043461;28;20041;-74
2023/05/23 12:03:28;;;;;;;16.08;3.53;;;14.40;99.90;;;;;;5031176;28;20119;-74
2023/05/23 12:05:54;;;;;;;16.13;3.38;;;14.70;99.90;;;;;;5047333;28;20515;-74
2023/05/23 12:08:20;;;;;;;15.25;3.50;;;14.40;99.90;;;;;;5061552;28;20046;-74
2023/05/23 12:10:51;;;;;;;14.18;3.17;;;14.70;99.90;;;;;;5063669;28;20040;-74
2023/05/23 12:13:17;;;;;;;15.77;3.63;;;14.60;99.90;;;;;;5040520;28;20032;-74
2023/05/23 12:15:43;;;;;;;16.10;3.67;;;14.50;99.90;;;;;;5061321;28;20125;-74
2023/05/23 12:18:10;;;;;;;18.15;3.58;;;14.40;99.90;;;;;;5026983;28;20462;-74
2023/05/23 12:20:36;;;;;;;17.50;3.50;;;14.30;99.90;;;;;;5044800;28;20055;-74
2023/05/23 12:23:05;;;;;;;17.65;4.15;;;14.10;99.90;;;;;;5061373;28;20418;-74
2023/05/23 12:25:43;;;;;;;13.18;3.60;;;14.10;99.90;;;;;;5048274;28;20138;-74
2023/05/23 12:28:12;;;;;;;17.95;3.88;;;14.40;99.90;;;;;;5036147;28;20036;-74
2023/05/23 12:30:42;;;;;;;17.73;3.40;;;14.70;99.90;;;;;;5046547;28;20375;-75
2023/05/23 12:33:09;;;;;;;13.65;3.30;;;14.70;99.90;;;;;;5060701;28;20032;-74
2023/05/23 12:35:35;;;;;;;16.48;3.55;;;14.40;99.90;;;;;;5065934;28;20117;-74
2023/05/23 12:38:00;;;;;;;17.52;4.05;;;14.30;99.90;;;;;;5046275;28;20228;-75
2023/05/23 12:40:27;;;;;;;21.45;4.30;;;14.20;99.90;;;;;;5065038;28;20062;-74